Mn Pelican — FMLR — position and weather

sailwx.info

Track history (hours):
 
Tides and Currents Weather Stations Pressure Air Temp Water Temp Dewpoint Dewpoint Depression Visibility Wind Speed Wind Dir Waves Ship Positions

Mn Pelican

Last reported at 2016-Jul-27 17:33 UTC. Time now 2016-Jul-27 19:12 UTC.
Position N 50°36' W 001°53'.

Length 155 m; draft 5.9 m.

Type: Ship. MMSI: 228315700.

Date/timePositionNaut miles runAvg speedWind from/ knotsBaromVisibWave heightAir tempDewpointWater temp
2016-Jul-27 17:33N 50°36' W 001°53'7 6.5
2016-Jul-27 16:25N 50°42' W 001°59'0 0.0
2016-Jul-27 15:27N 50°42' W 001°59'0 0.0
2016-Jul-27 14:33N 50°42' W 001°59'0 0.0
2016-Jul-27 13:33N 50°42' W 001°59'0 0.0
2016-Jul-27 12:32N 50°42' W 001°59'0 0.0
2016-Jul-27 11:32N 50°42' W 001°59'0 0.0
2016-Jul-27 10:31N 50°42' W 001°59'0 0.0
2016-Jul-27 09:31N 50°42' W 001°59'1 1.3
2016-Jul-27 08:34N 50°42' W 001°57'7 7.2
2016-Jul-27 07:33N 50°35' W 001°53'11812.4
2016-Jul-26 22:04N 49°20' W 004°14'5415.0
2016-Jul-26 18:28N 48°53' W 005°26'5113.0
2016-Jul-26 14:33N 48°04' W 005°43'2914.2
2016-Jul-26 12:33N 47°37' W 005°29'1414.3
2016-Jul-26 11:33N 47°24' W 005°21'1514.3
2016-Jul-26 10:31N 47°10' W 005°14'1413.8
2016-Jul-26 09:31N 46°57' W 005°06'1717.6
2016-Jul-26 08:33N 46°41' W 004°56'1010.2
2016-Jul-26 07:33N 46°32' W 004°51'1414.1
2016-Jul-26 06:33N 46°18' W 004°44'1614.5
2016-Jul-26 05:28N 46°04' W 004°36'2813.9
2016-Jul-26 03:26N 45°38' W 004°19'211 4.4
2016-Jul-24 03:25N 49°06' W 005°13'1314.7
2016-Jul-24 02:33N 49°13' W 004°57'1515.4
2016-Jul-24 01:33N 49°22' W 004°38'1615.6
2016-Jul-24 00:30N 49°32' W 004°18'1515.3
2016-Jul-23 23:31N 49°41' W 003°60'1815.1
2016-Jul-23 22:22N 49°51' W 003°38'1214.8
2016-Jul-23 21:33N 49°58' W 003°23'1514.6
2016-Jul-23 20:33N 50°06' W 003°03'1414.4
2016-Jul-23 19:33N 50°13' W 002°43'1914.7
2016-Jul-23 18:14N 50°23' W 002°17'1415.2
2016-Jul-23 17:19N 50°30' W 001°59'1013.0
2016-Jul-23 16:34N 50°40' W 001°56'4 3.5
2016-Jul-23 15:31N 50°42' W 001°59'0 0.0
2016-Jul-23 14:27N 50°42' W 001°59'0 0.0
2016-Jul-23 13:24N 50°42' W 001°59'0 0.0
2016-Jul-23 12:08N 50°42' W 001°59'0 0.0
2016-Jul-23 11:26N 50°42' W 001°59'0 0.0
2016-Jul-23 10:31N 50°42' W 001°59'0 0.0
2016-Jul-23 09:31N 50°42' W 001°59'2 2.0
2016-Jul-23 08:33N 50°41' W 001°57'6 6.0
2016-Jul-23 07:33N 50°36' W 001°53'3712.4
2016-Jul-23 04:33N 49°60' W 002°10'3014.3
2016-Jul-23 02:29N 49°50' W 002°53'1314.2
2016-Jul-23 01:33N 49°43' W 003°11'10414.4
2016-Jul-22 18:21N 48°50' W 005°29'8613.7
2016-Jul-22 12:06N 47°25' W 005°22'914.5
2016-Jul-22 11:27N 47°16' W 005°17'3314.5
2016-Jul-22 09:11N 46°45' W 004°59'1214.5
2016-Jul-22 08:20N 46°34' W 004°52'3314.8
2016-Jul-22 06:08N 46°03' W 004°36'  
2016-Jul-19 23:07N 44°47' W 003°51'915.0
2016-Jul-19 22:31N 44°55' W 003°56'3114.9
2016-Jul-19 20:28N 45°24' W 004°12'1415.0
2016-Jul-19 19:33N 45°36' W 004°19'1514.9
2016-Jul-19 18:33N 45°50' W 004°27'1515.3
2016-Jul-19 17:34N 46°05' W 004°34'1515.0
2016-Jul-19 16:34N 46°19' W 004°42'4615.2
2016-Jul-19 13:33N 47°01' W 005°07'1515.2
2016-Jul-19 12:33N 47°15' W 005°16'3015.0
2016-Jul-19 10:33N 47°43' W 005°33'1515.2
2016-Jul-19 09:33N 47°57' W 005°42'1515.0
2016-Jul-19 08:33N 48°11' W 005°50'11013.5
2016-Jul-19 00:26N 49°37' W 004°07'1416.3
2016-Jul-18 23:34N 49°46' W 003°50'1616.4
2016-Jul-18 22:34N 49°55' W 003°29'1615.6
2016-Jul-18 21:34N 50°04' W 003°09'1615.7
2016-Jul-18 20:34N 50°11' W 002°48'1515.4
2016-Jul-18 19:33N 50°18' W 002°26'1514.7
2016-Jul-18 18:33N 50°26' W 002°06'1413.7
2016-Jul-18 17:33N 50°37' W 001°54'6 6.1
2016-Jul-18 16:30N 50°42' W 001°59'0 0.0
2016-Jul-18 15:33N 50°42' W 001°59'0 0.0
2016-Jul-18 14:32N 50°42' W 001°59'0 0.0
2016-Jul-18 13:26N 50°42' W 001°59'0 0.0
2016-Jul-18 12:31N 50°42' W 001°59'0 0.0
2016-Jul-18 11:31N 50°42' W 001°59'0 0.0
2016-Jul-18 10:27N 50°42' W 001°59'0 0.0
2016-Jul-18 09:33N 50°42' W 001°59'0 0.1
2016-Jul-18 08:33N 50°42' W 001°59'9 8.9
2016-Jul-18 07:33N 50°35' W 001°52'4012.6
2016-Jul-18 04:24N 49°57' W 002°12'3015.3
2016-Jul-18 02:26N 49°49' W 002°57'1515.1
2016-Jul-18 01:28N 49°41' W 003°16'1415.1
2016-Jul-18 00:34N 49°33' W 003°34'1715.1
2016-Jul-17 23:27N 49°26' W 003°57'3115.3
2016-Jul-17 21:25N 49°11' W 004°39'1315.0
2016-Jul-17 20:33N 49°04' W 004°56'1515.1
2016-Jul-17 19:33N 48°57' W 005°15'1515.1
2016-Jul-17 18:33N 48°49' W 005°35'  
Track history (hours):
 
Tides and Currents Weather Stations Pressure Air Temp Water Temp Dewpoint Dewpoint Depression Visibility Wind Speed Wind Dir Waves Ship Positions

Mn Pelican

Last reported at 2016-Jul-27 17:33 UTC. Time now 2016-Jul-27 19:12 UTC.
Position N 50°36' W 001°53'.

Length 155 m; draft 5.9 m.

Type: Ship. MMSI: 228315700.

Date/timePositionNaut miles runAvg speedWind from/ knotsBaromVisibWave heightAir tempDewpointWater temp
2016-Jul-27 17:33N 50°36' W 001°53'7 6.5
2016-Jul-27 16:25N 50°42' W 001°59'0 0.0
2016-Jul-27 15:27N 50°42' W 001°59'0 0.0
2016-Jul-27 14:33N 50°42' W 001°59'0 0.0
2016-Jul-27 13:33N 50°42' W 001°59'0 0.0
2016-Jul-27 12:32N 50°42' W 001°59'0 0.0
2016-Jul-27 11:32N 50°42' W 001°59'0 0.0
2016-Jul-27 10:31N 50°42' W 001°59'0 0.0
2016-Jul-27 09:31N 50°42' W 001°59'1 1.3
2016-Jul-27 08:34N 50°42' W 001°57'7 7.2
2016-Jul-27 07:33N 50°35' W 001°53'11812.4
2016-Jul-26 22:04N 49°20' W 004°14'5415.0
2016-Jul-26 18:28N 48°53' W 005°26'5113.0
2016-Jul-26 14:33N 48°04' W 005°43'2914.2
2016-Jul-26 12:33N 47°37' W 005°29'1414.3
2016-Jul-26 11:33N 47°24' W 005°21'1514.3
2016-Jul-26 10:31N 47°10' W 005°14'1413.8
2016-Jul-26 09:31N 46°57' W 005°06'1717.6
2016-Jul-26 08:33N 46°41' W 004°56'1010.2
2016-Jul-26 07:33N 46°32' W 004°51'1414.1
2016-Jul-26 06:33N 46°18' W 004°44'1614.5
2016-Jul-26 05:28N 46°04' W 004°36'2813.9
2016-Jul-26 03:26N 45°38' W 004°19'211 4.4
2016-Jul-24 03:25N 49°06' W 005°13'1314.7
2016-Jul-24 02:33N 49°13' W 004°57'1515.4
2016-Jul-24 01:33N 49°22' W 004°38'1615.6
2016-Jul-24 00:30N 49°32' W 004°18'1515.3
2016-Jul-23 23:31N 49°41' W 003°60'1815.1
2016-Jul-23 22:22N 49°51' W 003°38'1214.8
2016-Jul-23 21:33N 49°58' W 003°23'1514.6
2016-Jul-23 20:33N 50°06' W 003°03'1414.4
2016-Jul-23 19:33N 50°13' W 002°43'1914.7
2016-Jul-23 18:14N 50°23' W 002°17'1415.2
2016-Jul-23 17:19N 50°30' W 001°59'1013.0
2016-Jul-23 16:34N 50°40' W 001°56'4 3.5
2016-Jul-23 15:31N 50°42' W 001°59'0 0.0
2016-Jul-23 14:27N 50°42' W 001°59'0 0.0
2016-Jul-23 13:24N 50°42' W 001°59'0 0.0
2016-Jul-23 12:08N 50°42' W 001°59'0 0.0
2016-Jul-23 11:26N 50°42' W 001°59'0 0.0
2016-Jul-23 10:31N 50°42' W 001°59'0 0.0
2016-Jul-23 09:31N 50°42' W 001°59'2 2.0
2016-Jul-23 08:33N 50°41' W 001°57'6 6.0
2016-Jul-23 07:33N 50°36' W 001°53'3712.4
2016-Jul-23 04:33N 49°60' W 002°10'3014.3
2016-Jul-23 02:29N 49°50' W 002°53'1314.2
2016-Jul-23 01:33N 49°43' W 003°11'10414.4
2016-Jul-22 18:21N 48°50' W 005°29'8613.7
2016-Jul-22 12:06N 47°25' W 005°22'914.5
2016-Jul-22 11:27N 47°16' W 005°17'3314.5
2016-Jul-22 09:11N 46°45' W 004°59'1214.5
2016-Jul-22 08:20N 46°34' W 004°52'3314.8
2016-Jul-22 06:08N 46°03' W 004°36'  
2016-Jul-19 23:07N 44°47' W 003°51'915.0
2016-Jul-19 22:31N 44°55' W 003°56'3114.9
2016-Jul-19 20:28N 45°24' W 004°12'1415.0
2016-Jul-19 19:33N 45°36' W 004°19'1514.9
2016-Jul-19 18:33N 45°50' W 004°27'1515.3
2016-Jul-19 17:34N 46°05' W 004°34'1515.0
2016-Jul-19 16:34N 46°19' W 004°42'4615.2
2016-Jul-19 13:33N 47°01' W 005°07'1515.2
2016-Jul-19 12:33N 47°15' W 005°16'3015.0
2016-Jul-19 10:33N 47°43' W 005°33'1515.2
2016-Jul-19 09:33N 47°57' W 005°42'1515.0
2016-Jul-19 08:33N 48°11' W 005°50'11013.5
2016-Jul-19 00:26N 49°37' W 004°07'1416.3
2016-Jul-18 23:34N 49°46' W 003°50'1616.4
2016-Jul-18 22:34N 49°55' W 003°29'1615.6
2016-Jul-18 21:34N 50°04' W 003°09'1615.7
2016-Jul-18 20:34N 50°11' W 002°48'1515.4
2016-Jul-18 19:33N 50°18' W 002°26'1514.7
2016-Jul-18 18:33N 50°26' W 002°06'1413.7
2016-Jul-18 17:33N 50°37' W 001°54'6 6.1
2016-Jul-18 16:30N 50°42' W 001°59'0 0.0
2016-Jul-18 15:33N 50°42' W 001°59'0 0.0
2016-Jul-18 14:32N 50°42' W 001°59'0 0.0
2016-Jul-18 13:26N 50°42' W 001°59'0 0.0
2016-Jul-18 12:31N 50°42' W 001°59'0 0.0
2016-Jul-18 11:31N 50°42' W 001°59'0 0.0
2016-Jul-18 10:27N 50°42' W 001°59'0 0.0
2016-Jul-18 09:33N 50°42' W 001°59'0 0.1
2016-Jul-18 08:33N 50°42' W 001°59'9 8.9
2016-Jul-18 07:33N 50°35' W 001°52'4012.6
2016-Jul-18 04:24N 49°57' W 002°12'3015.3
2016-Jul-18 02:26N 49°49' W 002°57'1515.1
2016-Jul-18 01:28N 49°41' W 003°16'1415.1
2016-Jul-18 00:34N 49°33' W 003°34'1715.1
2016-Jul-17 23:27N 49°26' W 003°57'3115.3
2016-Jul-17 21:25N 49°11' W 004°39'1315.0
2016-Jul-17 20:33N 49°04' W 004°56'1515.1
2016-Jul-17 19:33N 48°57' W 005°15'1515.1
2016-Jul-17 18:33N 48°49' W 005°35'  

Dump ship's entire track history